createdAt,value
2018-12-12T00:02:26.388Z,3.32
2018-12-12T00:04:58.793Z,3.40
2018-12-12T00:07:34.025Z,3.35
2018-12-12T00:10:08.224Z,3.33
2018-12-12T00:12:39.017Z,3.35
2018-12-12T00:15:11.185Z,3.46
2018-12-12T00:17:43.981Z,3.48
2018-12-12T00:20:16.990Z,3.42
2018-12-12T00:22:49.480Z,3.42
2018-12-12T00:25:21.669Z,3.40
2018-12-12T00:30:48.850Z,3.53
2018-12-12T00:33:21.153Z,3.38
2018-12-12T00:35:53.582Z,3.42
2018-12-12T00:38:25.411Z,3.33
2018-12-12T00:40:57.790Z,3.26
2018-12-12T00:43:29.860Z,3.19
2018-12-12T00:46:04.343Z,3.19
2018-12-12T00:48:36.084Z,3.23
2018-12-12T00:51:12.496Z,3.31
2018-12-12T00:53:44.280Z,3.25
2018-12-12T00:56:16.577Z,3.26
2018-12-12T00:58:48.713Z,3.27
2018-12-12T01:01:20.904Z,3.24
2018-12-12T01:03:52.801Z,3.27
2018-12-12T01:06:25.103Z,3.22
2018-12-12T01:08:57.151Z,3.22
2018-12-12T01:11:34.549Z,3.20
2018-12-12T01:14:04.735Z,3.17
2018-12-12T01:16:34.804Z,3.24
2018-12-12T01:19:07.319Z,3.23
2018-12-12T01:21:39.573Z,3.26
2018-12-12T01:24:11.795Z,3.24
2018-12-12T01:26:41.969Z,3.23
2018-12-12T01:29:14.107Z,3.23
2018-12-12T01:31:45.964Z,3.12
2018-12-12T01:34:18.032Z,3.06
2018-12-12T01:36:50.452Z,2.97
2018-12-12T01:39:22.293Z,2.93
2018-12-12T01:41:54.474Z,2.89
2018-12-12T01:44:26.843Z,2.88
2018-12-12T01:46:58.996Z,2.93
2018-12-12T01:49:30.992Z,2.97
2018-12-12T01:52:03.436Z,3.00
2018-12-12T01:54:35.554Z,3.06
2018-12-12T01:57:05.917Z,3.11
2018-12-12T01:59:38.428Z,3.15
2018-12-12T02:02:10.478Z,3.14
2018-12-12T02:04:42.721Z,3.16
2018-12-12T02:07:14.857Z,3.22
2018-12-12T02:09:47.010Z,3.18
2018-12-12T02:12:19.259Z,3.13
2018-12-12T02:14:50.823Z,3.13
2018-12-12T02:17:22.961Z,3.05
2018-12-12T02:19:53.261Z,3.05
2018-12-12T02:22:25.507Z,3.00
2018-12-12T02:24:59.556Z,3.08
2018-12-12T02:27:31.383Z,3.12
2018-12-12T02:30:05.484Z,3.17
2018-12-12T02:32:37.604Z,3.12
2018-12-12T02:35:09.873Z,3.07
2018-12-12T02:37:42.040Z,3.07
2018-12-12T02:40:12.324Z,3.13
2018-12-12T02:42:46.896Z,3.18
2018-12-12T02:45:18.618Z,3.15
2018-12-12T02:47:52.088Z,3.18
2018-12-12T02:50:22.196Z,3.13
2018-12-12T02:52:54.499Z,3.16
2018-12-12T02:55:26.920Z,3.19
2018-12-12T02:57:57.132Z,3.32
2018-12-12T03:00:28.814Z,3.33
2018-12-12T03:03:04.043Z,3.18
2018-12-12T03:05:36.376Z,3.23
2018-12-12T03:08:08.587Z,3.16
2018-12-12T03:10:40.899Z,3.32
2018-12-12T03:13:13.019Z,3.40
2018-12-12T03:15:44.985Z,3.36
2018-12-12T03:18:19.341Z,3.30
2018-12-12T03:20:51.538Z,3.27
2018-12-12T03:23:23.421Z,3.22
2018-12-12T03:25:55.940Z,3.20
2018-12-12T03:28:27.976Z,3.05
2018-12-12T03:30:59.967Z,2.96
2018-12-12T03:33:32.090Z,2.88
2018-12-12T03:36:04.621Z,2.86
2018-12-12T03:38:36.561Z,2.84
2018-12-12T03:41:09.056Z,2.85
2018-12-12T03:43:41.040Z,2.94
2018-12-12T03:46:12.957Z,2.93
2018-12-12T03:48:45.256Z,3.01
2018-12-12T03:51:17.578Z,2.99
2018-12-12T03:53:49.781Z,2.97
2018-12-12T03:56:21.816Z,3.02
2018-12-12T03:58:53.813Z,3.05
2018-12-12T04:01:25.807Z,3.10
2018-12-12T04:03:58.000Z,3.12
2018-12-12T04:06:29.933Z,3.13
2018-12-12T04:09:01.976Z,3.22
2018-12-12T04:11:33.947Z,3.23
2018-12-12T04:14:06.152Z,3.18
2018-12-12T04:16:38.286Z,3.11
2018-12-12T04:22:04.567Z,3.02
2018-12-12T04:24:36.979Z,3.07
2018-12-12T04:27:08.888Z,3.03
2018-12-12T04:29:41.137Z,3.00
2018-12-12T04:32:13.308Z,3.04
2018-12-12T04:34:45.485Z,3.03
2018-12-12T04:37:17.624Z,2.96
2018-12-12T04:39:49.767Z,2.96
2018-12-12T04:42:20.204Z,2.93
2018-12-12T04:44:50.257Z,2.91
2018-12-12T04:47:24.898Z,2.95
2018-12-12T04:49:59.039Z,2.95
2018-12-12T04:52:31.481Z,2.95
2018-12-12T04:55:02.089Z,3.04
2018-12-12T04:57:34.239Z,2.96
2018-12-12T05:00:08.499Z,2.92
2018-12-12T05:02:43.022Z,2.87
2018-12-12T05:05:15.976Z,2.79
2018-12-12T05:07:50.495Z,2.74
2018-12-12T05:10:22.839Z,2.73
2018-12-12T05:12:55.057Z,2.63
2018-12-12T05:15:27.336Z,2.60
2018-12-12T05:18:00.101Z,2.59
2018-12-12T05:20:32.065Z,2.57
2018-12-12T05:23:05.300Z,2.53
2018-12-12T05:25:38.374Z,2.51
2018-12-12T05:28:10.637Z,2.53
2018-12-12T05:30:43.872Z,2.63
2018-12-12T05:33:16.549Z,2.59
2018-12-12T05:38:43.202Z,2.62
2018-12-12T05:41:16.151Z,2.62
2018-12-12T05:43:50.866Z,2.50
2018-12-12T05:46:22.949Z,2.58
2018-12-12T05:48:53.327Z,2.51
2018-12-12T05:51:25.677Z,2.45
2018-12-12T05:53:57.336Z,2.49
2018-12-12T05:56:29.799Z,2.43
2018-12-12T05:59:01.994Z,2.40
2018-12-12T06:01:34.280Z,2.41
2018-12-12T06:04:06.388Z,2.38
2018-12-12T06:06:36.664Z,2.36
2018-12-12T06:09:09.720Z,2.38
2018-12-12T06:11:44.703Z,2.43
2018-12-12T06:14:16.614Z,2.48
2018-12-12T06:16:48.984Z,2.48
2018-12-12T06:19:23.862Z,2.46
2018-12-12T06:21:57.531Z,2.48
2018-12-12T06:24:27.662Z,2.50
2018-12-12T06:26:59.931Z,2.60
2018-12-12T06:29:31.773Z,2.63
2018-12-12T06:32:02.117Z,2.63
2018-12-12T06:34:33.953Z,2.59
2018-12-12T06:37:04.321Z,2.64
2018-12-12T06:39:36.383Z,2.74
2018-12-12T06:42:08.811Z,2.68
2018-12-12T06:44:43.131Z,2.67
2018-12-12T06:47:15.500Z,2.74
2018-12-12T06:57:21.273Z,2.74
2018-12-12T06:59:53.032Z,2.84
2018-12-12T07:02:24.977Z,2.74
2018-12-12T07:04:57.323Z,2.71
2018-12-12T07:07:27.677Z,2.75
2018-12-12T07:09:59.921Z,2.76
2018-12-12T07:12:29.901Z,2.70
2018-12-12T07:15:01.977Z,2.84
2018-12-12T07:17:34.281Z,2.73
2018-12-12T07:20:06.382Z,2.82
2018-12-12T07:22:38.452Z,2.86
2018-12-12T07:25:10.688Z,2.90
2018-12-12T07:27:45.850Z,2.88
2018-12-12T07:30:17.779Z,2.84
2018-12-12T07:32:48.025Z,2.84
2018-12-12T07:35:20.020Z,2.79
2018-12-12T07:37:53.180Z,2.91
2018-12-12T07:40:25.836Z,2.95
2018-12-12T07:42:57.518Z,2.99
2018-12-12T07:45:29.643Z,2.98
2018-12-12T07:48:04.044Z,2.94
2018-12-12T07:50:36.037Z,3.01
2018-12-12T07:53:08.365Z,3.02
2018-12-12T07:58:12.866Z,3.18
2018-12-12T08:00:47.331Z,3.20
2018-12-12T08:03:19.327Z,3.22
2018-12-12T08:05:51.682Z,3.18
2018-12-12T08:08:23.956Z,3.22
2018-12-12T08:10:57.330Z,3.29
2018-12-12T08:13:32.231Z,3.44
2018-12-12T08:16:04.285Z,3.47
2018-12-12T08:18:36.609Z,3.27
2018-12-12T08:21:08.648Z,3.15
2018-12-12T08:23:40.811Z,3.17
2018-12-12T08:26:13.154Z,3.24
2018-12-12T08:28:45.374Z,3.19
2018-12-12T08:31:17.560Z,3.21
2018-12-12T08:33:50.188Z,3.36
2018-12-12T08:36:22.008Z,3.36
2018-12-12T08:38:54.223Z,3.42
2018-12-12T08:41:24.488Z,3.41
2018-12-12T08:43:59.257Z,3.32
2018-12-12T08:46:31.980Z,3.34
2018-12-12T08:49:04.342Z,3.47
2018-12-12T08:51:39.725Z,3.46
2018-12-12T08:54:11.588Z,3.38
2018-12-12T08:59:14.925Z,3.42
2018-12-12T09:01:47.178Z,3.43
2018-12-12T09:04:19.560Z,3.48
2018-12-12T09:06:51.922Z,3.53
2018-12-12T09:09:24.427Z,3.58
2018-12-12T09:11:56.409Z,3.55
2018-12-12T09:14:28.315Z,3.52
2018-12-12T09:17:00.632Z,3.69
2018-12-12T09:19:32.874Z,3.57
2018-12-12T09:22:05.297Z,3.62
2018-12-12T09:24:37.273Z,3.72
2018-12-12T09:27:09.522Z,3.64
2018-12-12T09:29:42.183Z,3.67
2018-12-12T09:32:14.470Z,3.55
2018-12-12T09:34:48.856Z,3.53
2018-12-12T09:37:20.728Z,3.63
2018-12-12T09:39:52.742Z,3.39
2018-12-12T09:42:24.412Z,3.37
2018-12-12T09:44:57.216Z,3.34
2018-12-12T09:47:29.638Z,3.17
2018-12-12T09:50:04.027Z,3.08
2018-12-12T09:52:35.620Z,3.13
2018-12-12T09:55:08.175Z,3.23
2018-12-12T09:57:38.091Z,3.20
2018-12-12T10:00:10.671Z,3.33
2018-12-12T10:02:42.717Z,3.31
2018-12-12T10:05:15.428Z,3.27
2018-12-12T10:07:47.365Z,3.21
2018-12-12T10:10:19.786Z,3.36
2018-12-12T10:12:52.228Z,3.57
2018-12-12T10:15:24.787Z,3.53
2018-12-12T10:17:56.624Z,3.38
2018-12-12T10:20:29.032Z,3.45
2018-12-12T10:23:01.007Z,3.45
2018-12-12T10:25:31.225Z,3.49
2018-12-12T10:28:03.253Z,3.42
2018-12-12T10:30:37.605Z,3.33
2018-12-12T10:33:09.340Z,3.33
2018-12-12T10:35:41.464Z,3.40
2018-12-12T10:38:13.751Z,3.49
2018-12-12T10:40:45.671Z,3.38
2018-12-12T10:43:17.769Z,3.31
2018-12-12T10:45:50.038Z,3.42
2018-12-12T10:48:22.219Z,3.43
2018-12-12T10:50:54.608Z,3.49
2018-12-12T10:53:28.928Z,3.43
2018-12-12T10:56:00.608Z,3.56
2018-12-12T10:58:32.900Z,3.50
2018-12-12T11:01:12.402Z,3.37
2018-12-12T11:03:45.049Z,3.49
2018-12-12T11:06:17.442Z,3.50
2018-12-12T11:08:49.482Z,3.74
2018-12-12T11:11:21.460Z,3.69
2018-12-12T11:13:53.498Z,3.60
2018-12-12T11:16:25.993Z,3.62
2018-12-12T11:18:58.348Z,3.56
2018-12-12T11:21:30.706Z,3.64
2018-12-12T11:24:03.326Z,3.90
2018-12-12T11:26:35.256Z,3.96
2018-12-12T11:29:07.519Z,3.91
2018-12-12T11:31:42.076Z,3.91
2018-12-12T11:34:14.258Z,4.02
2018-12-12T11:36:46.100Z,3.80
2018-12-12T11:39:18.218Z,3.75
2018-12-12T11:41:50.806Z,3.88
2018-12-12T11:44:22.840Z,3.98
2018-12-12T11:46:55.068Z,3.99
2018-12-12T11:49:27.437Z,3.84
2018-12-12T11:51:59.675Z,3.92
2018-12-12T11:54:32.097Z,3.82
2018-12-12T11:57:04.320Z,3.73
2018-12-12T12:02:35.422Z,3.97
2018-12-12T12:05:04.743Z,4.23
2018-12-12T12:07:38.975Z,4.28
2018-12-12T12:10:11.945Z,3.91
2018-12-12T12:12:44.105Z,3.94
2018-12-12T12:15:15.952Z,3.96
2018-12-12T12:17:49.012Z,4.19
2018-12-12T12:20:21.693Z,4.30
2018-12-12T12:22:53.755Z,4.14
2018-12-12T12:25:26.027Z,4.15
2018-12-12T12:27:58.480Z,4.35
2018-12-12T12:30:31.052Z,4.48
2018-12-12T12:33:03.320Z,4.26
2018-12-12T12:35:35.787Z,4.20
2018-12-12T12:38:08.110Z,4.08
2018-12-12T12:40:40.033Z,3.90
2018-12-12T12:43:14.440Z,3.80
2018-12-12T12:45:46.552Z,3.83
2018-12-12T12:48:19.715Z,3.75
2018-12-12T12:50:53.704Z,3.75
2018-12-12T12:53:25.701Z,3.85
2018-12-12T12:55:58.055Z,4.00
2018-12-12T12:58:30.275Z,4.09
2018-12-12T13:01:04.574Z,4.35
2018-12-12T13:03:39.511Z,4.33
2018-12-12T13:06:11.101Z,4.24
2018-12-12T13:08:43.601Z,3.99
2018-12-12T13:11:15.595Z,3.92
2018-12-12T13:13:50.004Z,3.93
2018-12-12T13:19:16.676Z,4.11
2018-12-12T13:21:49.202Z,4.06
2018-12-12T13:24:26.156Z,3.97
2018-12-12T13:26:58.723Z,4.07
2018-12-12T13:29:30.711Z,4.17
2018-12-12T13:32:02.932Z,4.22
2018-12-12T13:34:36.774Z,4.19
2018-12-12T13:37:08.576Z,4.21
2018-12-12T13:39:40.859Z,4.02
2018-12-12T13:42:13.235Z,4.14
2018-12-12T13:44:46.249Z,4.13
2018-12-12T13:47:18.508Z,4.19
2018-12-12T13:49:50.811Z,4.07
2018-12-12T13:52:23.133Z,4.12
2018-12-12T13:54:55.595Z,4.29
2018-12-12T13:57:27.684Z,4.12
2018-12-12T13:59:59.898Z,4.11
2018-12-12T14:02:34.475Z,4.07
2018-12-12T14:05:06.395Z,4.13
2018-12-12T14:07:38.327Z,4.10
2018-12-12T14:10:10.447Z,4.02
2018-12-12T14:12:43.248Z,4.00
2018-12-12T14:15:15.752Z,4.10
2018-12-12T14:17:48.341Z,4.19
2018-12-12T14:20:20.538Z,3.82
2018-12-12T14:22:53.071Z,3.90
2018-12-12T14:25:25.150Z,3.93
2018-12-12T14:27:55.256Z,3.88
2018-12-12T14:30:27.458Z,3.73
2018-12-12T14:36:17.801Z,3.50
2018-12-12T14:38:52.759Z,3.53
2018-12-12T14:41:27.964Z,3.52
2018-12-12T14:44:00.471Z,3.59
2018-12-12T14:46:32.926Z,3.29
2018-12-12T14:49:05.335Z,3.20
2018-12-12T14:51:37.915Z,3.30
2018-12-12T14:54:09.572Z,3.27
2018-12-12T14:56:39.853Z,3.40
2018-12-12T14:59:12.112Z,3.46
2018-12-12T15:01:44.091Z,3.48
2018-12-12T15:04:16.201Z,3.38
2018-12-12T15:06:48.329Z,3.47
2018-12-12T15:09:20.843Z,3.45
2018-12-12T15:11:52.864Z,3.47
2018-12-12T15:14:24.972Z,3.46
2018-12-12T15:16:57.318Z,3.27
2018-12-12T15:19:31.874Z,3.18
2018-12-12T15:22:05.593Z,3.12
2018-12-12T15:24:35.946Z,3.22
2018-12-12T15:27:08.301Z,3.13
2018-12-12T15:29:40.150Z,3.05
2018-12-12T15:32:13.642Z,3.07
2018-12-12T15:34:45.693Z,3.11
2018-12-12T15:37:17.958Z,3.22
2018-12-12T15:39:52.681Z,3.23
2018-12-12T15:42:24.908Z,3.29
2018-12-12T15:44:57.902Z,3.32
2018-12-12T15:47:30.352Z,3.21
2018-12-12T15:52:56.417Z,3.31
2018-12-12T15:55:28.716Z,3.42
2018-12-12T15:58:03.087Z,3.43
2018-12-12T16:00:35.293Z,3.41
2018-12-12T16:03:08.013Z,3.43
2018-12-12T16:05:40.365Z,3.47
2018-12-12T16:08:14.910Z,3.56
2018-12-12T16:10:46.574Z,3.69
2018-12-12T16:13:18.805Z,3.77
2018-12-12T16:15:50.855Z,3.77
2018-12-12T16:18:24.784Z,3.93
2018-12-12T16:20:57.156Z,4.04
2018-12-12T16:23:29.446Z,4.10
2018-12-12T16:26:01.776Z,4.16
2018-12-12T16:28:33.965Z,3.98
2018-12-12T16:31:06.309Z,3.85
2018-12-12T16:33:36.492Z,3.69
2018-12-12T16:36:09.214Z,3.54
2018-12-12T16:38:41.964Z,3.38
2018-12-12T16:41:15.322Z,3.42
2018-12-12T16:43:45.728Z,3.38
2018-12-12T16:46:17.799Z,3.21
2018-12-12T16:48:50.309Z,3.22
2018-12-12T16:51:22.691Z,3.18
2018-12-12T16:53:54.462Z,3.01
2018-12-12T16:56:27.594Z,2.83
2018-12-12T16:59:00.105Z,2.81
2018-12-12T17:01:35.176Z,2.74
2018-12-12T17:04:07.104Z,2.62
2018-12-12T17:10:02.168Z,2.66
2018-12-12T17:12:32.195Z,2.67
2018-12-12T17:15:06.952Z,2.67
2018-12-12T17:17:39.256Z,2.56
2018-12-12T17:20:11.955Z,2.57
2018-12-12T17:22:44.241Z,2.50
2018-12-12T17:25:17.093Z,2.52
2018-12-12T17:27:48.963Z,2.58
2018-12-12T17:30:19.954Z,2.65
2018-12-12T17:32:52.993Z,2.75
2018-12-12T17:35:25.130Z,2.76
2018-12-12T17:37:59.518Z,2.69
2018-12-12T17:40:31.802Z,2.73
2018-12-12T17:43:04.187Z,2.79
2018-12-12T17:45:36.067Z,2.73
2018-12-12T17:48:08.020Z,2.78
2018-12-12T17:50:40.246Z,2.73
2018-12-12T17:53:12.476Z,2.76
2018-12-12T17:55:46.980Z,2.78
2018-12-12T17:58:18.820Z,2.71
2018-12-12T18:00:51.439Z,2.71
2018-12-12T18:03:23.532Z,2.72
2018-12-12T18:05:55.712Z,2.74
2018-12-12T18:08:32.289Z,2.68
2018-12-12T18:11:04.225Z,2.64
2018-12-12T18:13:37.503Z,2.58
2018-12-12T18:16:09.553Z,2.57
2018-12-12T18:18:39.915Z,2.60
2018-12-12T18:21:11.780Z,2.62
2018-12-12T18:26:37.779Z,2.77
2018-12-12T18:29:09.416Z,2.80
2018-12-12T18:31:41.626Z,2.82
2018-12-12T18:34:14.071Z,2.80
2018-12-12T18:36:46.650Z,2.76
2018-12-12T18:39:18.372Z,2.72
2018-12-12T18:41:51.025Z,2.67
2018-12-12T18:44:23.158Z,2.61
2018-12-12T18:46:55.934Z,2.52
2018-12-12T18:49:28.396Z,2.58
2018-12-12T18:52:01.821Z,2.54
2018-12-12T18:54:34.146Z,2.45
2018-12-12T18:57:06.258Z,2.39
2018-12-12T18:59:38.300Z,2.36
2018-12-12T19:02:10.897Z,2.24
2018-12-12T19:04:42.632Z,2.14
2018-12-12T19:07:17.320Z,2.06
2018-12-12T19:09:51.828Z,1.95
2018-12-12T19:12:24.015Z,1.82
2018-12-12T19:15:02.264Z,1.77
2018-12-12T19:17:33.932Z,1.70
2018-12-12T19:20:07.501Z,1.70
2018-12-12T19:22:41.543Z,1.63
2018-12-12T19:25:13.354Z,1.64
2018-12-12T19:27:45.812Z,1.55
2018-12-12T19:30:17.986Z,1.56
2018-12-12T19:32:51.119Z,1.54
2018-12-12T19:35:21.513Z,1.53
2018-12-12T19:37:53.648Z,1.50
2018-12-12T19:43:19.635Z,1.49
2018-12-12T19:45:54.505Z,1.51
2018-12-12T19:48:27.547Z,1.54
2018-12-12T19:50:59.401Z,1.50
2018-12-12T19:53:31.591Z,1.50
2018-12-12T19:56:01.762Z,1.58
2018-12-12T19:58:33.971Z,1.60
2018-12-12T20:01:08.674Z,1.67
2018-12-12T20:03:42.402Z,1.78
2018-12-12T20:06:15.243Z,1.86
2018-12-12T20:08:49.607Z,1.94
2018-12-12T20:13:53.770Z,2.16
2018-12-12T20:16:25.996Z,2.20
2018-12-12T20:18:58.248Z,2.35
2018-12-12T20:21:30.303Z,2.41
2018-12-12T20:24:02.666Z,2.39
2018-12-12T20:26:35.469Z,2.35
2018-12-12T20:29:06.412Z,2.20
2018-12-12T20:31:37.455Z,2.08
2018-12-12T20:34:10.167Z,2.05
2018-12-12T20:36:43.748Z,1.97
2018-12-12T20:39:16.990Z,2.05
2018-12-12T20:41:50.516Z,2.05
2018-12-12T20:44:24.583Z,2.02
2018-12-12T20:46:56.361Z,1.93
2018-12-12T20:49:29.081Z,1.96
2018-12-12T20:52:02.477Z,1.96
2018-12-12T20:54:32.970Z,1.92
2018-12-12T20:57:05.041Z,1.85
2018-12-12T20:59:36.856Z,1.74
2018-12-12T21:02:10.275Z,1.70
2018-12-12T21:04:43.257Z,1.68
2018-12-12T21:07:16.022Z,1.57
2018-12-12T21:09:48.005Z,1.49
2018-12-12T21:12:20.787Z,1.53
2018-12-12T21:14:53.217Z,1.74
2018-12-12T21:17:25.513Z,1.79
2018-12-12T21:19:59.678Z,1.84
2018-12-12T21:22:32.224Z,1.70
2018-12-12T21:25:04.851Z,1.85
2018-12-12T21:27:39.254Z,1.78
2018-12-12T21:30:17.175Z,1.80
2018-12-12T21:32:48.630Z,1.78
2018-12-12T21:35:21.501Z,1.73
2018-12-12T21:37:54.637Z,1.69
2018-12-12T21:40:27.204Z,1.67
2018-12-12T21:43:00.183Z,1.64
2018-12-12T21:45:31.955Z,1.68
2018-12-12T21:48:04.676Z,1.68
2018-12-12T21:50:37.887Z,1.70
2018-12-12T21:53:10.239Z,1.70
2018-12-12T21:55:43.702Z,1.66
2018-12-12T21:58:16.202Z,1.68
2018-12-12T22:00:50.799Z,1.68
2018-12-12T22:03:23.648Z,1.70
2018-12-12T22:05:57.357Z,1.71
2018-12-12T22:08:30.228Z,1.68
2018-12-12T22:11:02.576Z,1.71
2018-12-12T22:16:07.778Z,1.62
2018-12-12T22:18:38.388Z,1.72
2018-12-12T22:21:10.535Z,1.74
2018-12-12T22:23:43.358Z,1.78
2018-12-12T22:26:16.069Z,1.71
2018-12-12T22:28:48.715Z,1.72
2018-12-12T22:31:23.350Z,1.69
2018-12-12T22:33:56.069Z,1.58
2018-12-12T22:36:29.222Z,1.58
2018-12-12T22:39:02.985Z,1.54
2018-12-12T22:41:35.502Z,1.51
2018-12-12T22:44:08.485Z,1.52
2018-12-12T22:46:41.131Z,1.46
2018-12-12T22:49:13.377Z,1.44
2018-12-12T22:51:46.278Z,1.39
2018-12-12T22:54:21.213Z,1.36
2018-12-12T22:56:53.125Z,1.32
2018-12-12T22:59:28.380Z,1.32
2018-12-12T23:02:01.126Z,1.29
2018-12-12T23:04:34.280Z,1.38
2018-12-12T23:07:07.300Z,1.40
2018-12-12T23:09:39.157Z,1.31
2018-12-12T23:12:11.335Z,1.19
2018-12-12T23:14:43.297Z,1.27
2018-12-12T23:17:17.876Z,1.25
2018-12-12T23:19:52.724Z,1.29
2018-12-12T23:22:25.110Z,1.39
2018-12-12T23:24:57.455Z,1.34
2018-12-12T23:27:29.270Z,1.31
2018-12-12T23:30:01.359Z,1.10
2018-12-12T23:32:32.030Z,1.16
2018-12-12T23:35:03.914Z,1.14
2018-12-12T23:37:36.065Z,1.18
2018-12-12T23:40:08.261Z,1.18
2018-12-12T23:42:40.545Z,0.93
2018-12-12T23:45:12.724Z,0.95
2018-12-12T23:47:43.924Z,0.91
2018-12-12T23:50:16.072Z,0.75
2018-12-12T23:52:50.562Z,0.94
2018-12-12T23:55:22.267Z,0.76
2018-12-12T23:57:54.393Z,0.63
